CheckWX is a tool to help pilots better visualize weather data.  It is not intended as a substitute for an official pre-flight weather briefing.

21:35:41 UTC

CYJT TAF
Stephenville Airport
Stephenville, Canada
TAF AMD CYJT 201804Z 2018/2118 24018KT P6SM SCT020 TEMPO 2018/2020 BKN020 BECMG 2022/2024 23015KT FM210300 24012KT P6SM -SHSN BKN050 FM210500 24012KT 2SM -SHSN OVC020 FM210700 23010KT 3SM -SHSN OVC012 FM211400 23010KT P6SM BKN050 RMK NXT FCST BY 210000Z

Mar-20@
18:00 UTC

Mar-20 @ 18:00 UTC

Mar-20@
22:00 UTC

Mar-20 @ 22:00 UTC

TAF AMD CYJT 201804Z 2018/2118 24018KT P6SM SCT020
Wind
  • 240° at 18 KTS
Cloud Levels
  • Scattered at 2,000' AGL

Mar-20@
18:00 UTC

Mar-20 @ 18:00 UTC

Mar-20@
20:00 UTC

Mar-20 @ 20:00 UTC

TEMPO 2018/2020 BKN020

Expired

Cloud Levels
  • Broken at 2,000' AGL

Mar-20@
22:00 UTC

Mar-20 @ 22:00 UTC

Mar-21@
03:00 UTC

Mar-21 @ 03:00 UTC

BECMG 2022/2024 23015KT

Becoming

Becoming Conditions expected by Thu, Mar 21, 2019 @ 00:00 UTC

Wind
  • 230° at 15 KTS
Cloud Levels
  • Scattered at 2,000' AGL

Mar-21@
03:00 UTC

Mar-21 @ 03:00 UTC

Mar-21@
05:00 UTC

Mar-21 @ 05:00 UTC

FM210300 24012KT P6SM -SHSN BKN050

From

From Standard forecast or significant change

Wind
  • 240° at 12 KTS
Conditions
Light Snow
Cloud Levels
  • Broken at 5,000' AGL

Mar-21@
05:00 UTC

Mar-21 @ 05:00 UTC

Mar-21@
07:00 UTC

Mar-21 @ 07:00 UTC

FM210500 24012KT 2SM -SHSN OVC020

From

From Standard forecast or significant change

Wind
  • 240° at 12 KTS
Conditions
Light Snow
Cloud Levels
  • Overcast at 2,000' AGL

Mar-21@
07:00 UTC

Mar-21 @ 07:00 UTC

Mar-21@
14:00 UTC

Mar-21 @ 14:00 UTC

FM210700 23010KT 3SM -SHSN OVC012

From

From Standard forecast or significant change

Wind
  • 230° at 10 KTS
Conditions
Light Snow
Cloud Levels
  • Overcast at 1,200' AGL

Mar-21@
14:00 UTC

Mar-21 @ 14:00 UTC

Mar-21@
18:00 UTC

Mar-21 @ 18:00 UTC

FM211400 23010KT P6SM BKN050 RMK NXT FCST BY 210000Z

From

From Standard forecast or significant change

Wind
  • 230° at 10 KTS
Cloud Levels
  • Broken at 5,000' AGL